Aviation Digital Data Service (ADDS)

Output produced by TAFs form (0158 UTC 26 June 2017)
found at http://aviationweather.gov/adds/tafs/
 
KGUP 260036Z 2601/2624 25014KT P6SM VCSH SCT060 BKN120 
     TEMPO 2601/2603 VRB14G24KT -SHRA BKN060 
     FM260300 20010KT P6SM FEW130 
     FM260800 08004KT P6SM FEW130 
     FM261600 25011KT P6SM SCT120